Time;durP1;ratioP1;P1;durP2;ratioP2;P2;SDS_P1;SDS_P2;PMS_P1;PMS_P2;Temp;Humidity;BMP_temperature;BMP_pressure;BME280_temperature;BME280_humidity;BME280_pressure;Samples;Min_cycle;Max_cycle;Signal;HPM_P1;HPM_P2
2023/06/29 00:01:42;;;;;;;4.67;4.10;;;;;;;;;;5088426;28;20179;-88
2023/06/29 00:04:08;;;;;;;4.37;3.97;;;;;;;;;;5092619;28;20368;-88
2023/06/29 00:06:37;;;;;;;4.60;4.20;;;;;;;;;;5090108;28;20658;-89
2023/06/29 00:09:05;;;;;;;5.50;4.40;;;;;;;;;;5091232;28;20294;-87
2023/06/29 00:11:33;;;;;;;4.10;3.70;;;;;;;;;;5087833;28;20174;-87
2023/06/29 00:13:59;;;;;;;4.83;4.33;;;;;;;;;;5093378;28;20668;-88
2023/06/29 00:16:25;;;;;;;4.93;4.10;;;;;;;;;;5095581;28;20191;-86
2023/06/29 00:18:55;;;;;;;4.43;4.07;;;;;;;;;;5086757;28;20221;-87
2023/06/29 00:21:21;;;;;;;4.87;4.23;;;;;;;;;;5089368;28;20286;-87
2023/06/29 00:23:47;;;;;;;4.83;4.17;;;;;;;;;;5089485;28;20303;-88
2023/06/29 00:26:13;;;;;;;5.10;4.53;;;;;;;;;;5086152;28;20210;-88
2023/06/29 00:28:39;;;;;;;4.80;4.40;;;;;;;;;;5091712;28;20181;-88
2023/06/29 00:31:05;;;;;;;4.90;4.43;;;;;;;;;;5088100;28;20212;-88
2023/06/29 00:33:32;;;;;;;7.47;4.73;;;;;;;;;;5090133;28;20186;-89
2023/06/29 00:35:58;;;;;;;5.37;3.97;;;;;;;;;;5086756;28;20394;-88
2023/06/29 00:38:24;;;;;;;4.53;4.17;;;;;;;;;;5086199;28;20184;-88
2023/06/29 00:40:50;;;;;;;5.03;4.20;;;;;;;;;;5084348;28;20871;-86
2023/06/29 00:43:17;;;;;;;5.20;4.50;;;;;;;;;;5089573;28;20191;-87
2023/06/29 00:45:43;;;;;;;5.03;4.53;;;;;;;;;;5087112;28;20202;-88
2023/06/29 00:48:10;;;;;;;5.83;4.73;;;;;;;;;;5093424;28;20195;-88
2023/06/29 00:50:36;;;;;;;6.43;4.40;;;;;;;;;;5088655;28;20660;-88
2023/06/29 00:53:02;;;;;;;4.87;4.07;;;;;;;;;;5085926;28;20293;-88
2023/06/29 00:55:28;;;;;;;6.33;4.10;;;;;;;;;;5087525;28;20290;-88
2023/06/29 00:57:54;;;;;;;5.43;4.60;;;;;;;;;;5090911;28;20260;-88
2023/06/29 01:00:21;;;;;;;6.17;4.43;;;;;;;;;;5092555;28;20191;-88
2023/06/29 01:02:48;;;;;;;5.60;5.10;;;;;;;;;;5086436;28;20236;-88
2023/06/29 01:05:15;;;;;;;6.13;4.80;;;;;;;;;;5081683;28;20721;-87
2023/06/29 01:08:00;;;;;;;6.30;5.03;;;;;;;;;;5089442;28;20373;-88
2023/06/29 01:10:27;;;;;;;5.10;4.20;;;;;;;;;;5083958;28;20208;-87
2023/06/29 01:12:54;;;;;;;5.37;4.83;;;;;;;;;;5092754;28;20728;-87
2023/06/29 01:15:21;;;;;;;4.70;4.30;;;;;;;;;;5089749;28;20176;-87
2023/06/29 01:17:47;;;;;;;4.93;4.47;;;;;;;;;;5092516;28;20665;-88
2023/06/29 01:20:14;;;;;;;5.73;4.60;;;;;;;;;;5090770;28;20382;-87
2023/06/29 01:22:43;;;;;;;5.07;4.67;;;;;;;;;;5094601;28;20211;-88
2023/06/29 01:25:09;;;;;;;5.50;4.37;;;;;;;;;;5092292;28;20192;-88
2023/06/29 01:27:36;;;;;;;5.40;4.90;;;;;;;;;;5090875;28;20180;-88
2023/06/29 01:30:04;;;;;;;6.33;4.73;;;;;;;;;;5089591;28;20199;-87
2023/06/29 01:32:36;;;;;;;5.23;4.73;;;;;;;;;;5081447;28;20187;-87
2023/06/29 01:35:02;;;;;;;4.90;4.40;;;;;;;;;;5092780;28;20188;-88
2023/06/29 01:37:35;;;;;;;4.47;4.07;;;;;;;;;;5089968;28;20638;-87
2023/06/29 01:40:05;;;;;;;4.83;4.40;;;;;;;;;;5091827;28;20202;-87
2023/06/29 01:42:32;;;;;;;5.00;4.50;;;;;;;;;;5077779;28;20278;-87
2023/06/29 01:45:03;;;;;;;4.63;4.23;;;;;;;;;;5092066;28;20198;-87
2023/06/29 01:47:30;;;;;;;5.67;4.83;;;;;;;;;;5077146;28;20190;-89
2023/06/29 01:49:56;;;;;;;4.47;4.07;;;;;;;;;;5084769;28;20696;-88
2023/06/29 01:52:23;;;;;;;5.03;4.43;;;;;;;;;;5092294;28;20178;-87
2023/06/29 01:54:50;;;;;;;5.93;4.93;;;;;;;;;;5088039;28;20211;-87
2023/06/29 01:57:16;;;;;;;4.67;4.27;;;;;;;;;;5090562;28;20179;-87
2023/06/29 01:59:58;;;;;;;4.30;3.90;;;;;;;;;;5089281;28;20194;-87
2023/06/29 02:02:24;;;;;;;5.53;4.53;;;;;;;;;;5087311;28;20184;-87
2023/06/29 02:04:50;;;;;;;5.07;4.30;;;;;;;;;;5092164;28;20332;-88
2023/06/29 02:07:16;;;;;;;6.30;4.07;;;;;;;;;;5090483;28;20210;-87
2023/06/29 02:09:43;;;;;;;4.73;4.30;;;;;;;;;;5086713;28;20210;-88
2023/06/29 02:12:09;;;;;;;5.20;4.70;;;;;;;;;;5084288;28;20243;-87
2023/06/29 02:14:35;;;;;;;4.70;3.93;;;;;;;;;;5091381;28;20197;-87
2023/06/29 02:17:01;;;;;;;4.80;4.40;;;;;;;;;;5085126;28;20519;-88
2023/06/29 02:19:27;;;;;;;5.23;4.37;;;;;;;;;;5086576;28;20277;-87
2023/06/29 02:21:53;;;;;;;5.17;4.30;;;;;;;;;;5093109;28;20240;-87
2023/06/29 02:24:20;;;;;;;6.50;4.57;;;;;;;;;;5083275;28;20287;-88
2023/06/29 02:26:46;;;;;;;5.27;4.87;;;;;;;;;;5084190;28;20189;-88
2023/06/29 02:29:12;;;;;;;4.83;4.40;;;;;;;;;;5087314;28;20221;-88
2023/06/29 02:31:38;;;;;;;5.93;4.67;;;;;;;;;;5092698;28;20189;-86
2023/06/29 02:34:04;;;;;;;4.50;4.10;;;;;;;;;;5088699;28;20558;-87
2023/06/29 02:36:31;;;;;;;5.23;4.60;;;;;;;;;;5086240;28;20184;-87
2023/06/29 02:38:57;;;;;;;5.03;4.50;;;;;;;;;;5090568;28;20182;-87
2023/06/29 02:41:23;;;;;;;6.73;5.27;;;;;;;;;;5089579;28;21188;-87
2023/06/29 02:43:49;;;;;;;5.77;5.17;;;;;;;;;;5084586;28;20628;-87
2023/06/29 02:46:15;;;;;;;5.83;5.17;;;;;;;;;;5087124;28;20633;-88
2023/06/29 02:48:41;;;;;;;4.80;4.30;;;;;;;;;;5085845;28;20645;-87
2023/06/29 02:51:08;;;;;;;6.33;5.33;;;;;;;;;;5089091;28;20177;-86
2023/06/29 02:53:34;;;;;;;7.43;5.70;;;;;;;;;;5085889;28;20786;-87
2023/06/29 02:56:00;;;;;;;6.50;4.77;;;;;;;;;;5089480;28;20678;-88
2023/06/29 02:58:26;;;;;;;6.33;5.00;;;;;;;;;;5089832;28;20193;-86
2023/06/29 03:00:52;;;;;;;5.93;5.30;;;;;;;;;;5084449;28;20175;-88
2023/06/29 03:03:18;;;;;;;6.77;5.37;;;;;;;;;;5083154;28;20227;-87
2023/06/29 03:05:44;;;;;;;6.00;4.47;;;;;;;;;;5085258;28;20698;-88
2023/06/29 03:08:10;;;;;;;4.97;4.43;;;;;;;;;;5091296;28;20288;-88
2023/06/29 03:10:36;;;;;;;5.77;4.57;;;;;;;;;;5088146;28;20644;-87
2023/06/29 03:13:02;;;;;;;5.37;4.87;;;;;;;;;;5087118;28;20190;-87
2023/06/29 03:15:28;;;;;;;4.57;4.13;;;;;;;;;;5087438;28;20195;-88
2023/06/29 03:17:54;;;;;;;5.43;4.60;;;;;;;;;;5085235;28;20188;-87
2023/06/29 03:20:20;;;;;;;5.00;4.50;;;;;;;;;;5086265;28;20187;-88
2023/06/29 03:22:46;;;;;;;6.27;5.30;;;;;;;;;;5092198;28;20692;-88
2023/06/29 03:25:12;;;;;;;4.63;4.23;;;;;;;;;;5094846;28;20632;-88
2023/06/29 03:27:38;;;;;;;6.27;4.70;;;;;;;;;;5090866;28;20193;-88
2023/06/29 03:30:05;;;;;;;4.53;4.13;;;;;;;;;;5097962;28;20201;-87
2023/06/29 03:32:31;;;;;;;4.90;4.40;;;;;;;;;;5094777;28;20286;-88
2023/06/29 03:34:57;;;;;;;7.63;4.90;;;;;;;;;;5090650;28;20268;-88
2023/06/29 03:37:23;;;;;;;5.70;5.07;;;;;;;;;;5096167;28;20236;-88
2023/06/29 03:39:49;;;;;;;6.47;5.10;;;;;;;;;;5099300;28;20200;-87
2023/06/29 03:42:15;;;;;;;7.30;4.90;;;;;;;;;;5091301;28;20179;-88
2023/06/29 03:44:41;;;;;;;5.70;4.93;;;;;;;;;;5097845;28;20385;-87
2023/06/29 03:47:07;;;;;;;7.00;5.00;;;;;;;;;;5098489;28;20185;-88
2023/06/29 03:49:33;;;;;;;5.33;4.83;;;;;;;;;;5105559;28;20205;-87
2023/06/29 03:51:59;;;;;;;5.17;4.40;;;;;;;;;;5099123;28;20187;-88
2023/06/29 03:54:27;;;;;;;5.40;4.77;;;;;;;;;;5087955;28;20275;-88
2023/06/29 03:56:53;;;;;;;6.07;4.63;;;;;;;;;;5098346;28;20274;-88
2023/06/29 03:59:19;;;;;;;5.27;4.33;;;;;;;;;;5112960;28;20618;-88
2023/06/29 04:01:45;;;;;;;5.57;5.07;;;;;;;;;;5096042;28;20203;-87
2023/06/29 04:04:11;;;;;;;5.10;4.60;;;;;;;;;;5099665;28;20228;-87
2023/06/29 04:06:37;;;;;;;6.67;5.37;;;;;;;;;;5096115;28;20315;-87
2023/06/29 04:09:03;;;;;;;5.00;4.17;;;;;;;;;;5091943;28;20184;-88
2023/06/29 04:11:29;;;;;;;6.77;5.07;;;;;;;;;;5113497;28;20210;-87
2023/06/29 04:13:56;;;;;;;5.50;4.67;;;;;;;;;;5096050;28;20180;-87
2023/06/29 04:16:22;;;;;;;5.23;4.73;;;;;;;;;;5089846;28;20234;-88
2023/06/29 04:18:48;;;;;;;5.13;4.60;;;;;;;;;;5098533;28;20219;-88
2023/06/29 04:21:14;;;;;;;6.37;5.77;;;;;;;;;;5093619;28;20925;-87
2023/06/29 04:23:40;;;;;;;5.20;4.30;;;;;;;;;;5082352;28;20176;-87
2023/06/29 04:26:07;;;;;;;9.50;5.30;;;;;;;;;;5092567;28;20183;-88
2023/06/29 04:28:35;;;;;;;5.80;4.27;;;;;;;;;;5086162;28;20184;-87
2023/06/29 04:31:02;;;;;;;5.07;4.57;;;;;;;;;;5092192;28;20207;-87
2023/06/29 04:33:28;;;;;;;6.47;5.80;;;;;;;;;;5095808;28;20437;-87
2023/06/29 04:35:54;;;;;;;6.00;5.40;;;;;;;;;;5084317;28;20180;-87
2023/06/29 04:38:25;;;;;;;6.93;5.20;;;;;;;;;;5090770;28;20180;-88
2023/06/29 04:40:59;;;;;;;5.03;4.63;;;;;;;;;;5092508;28;20333;-87
2023/06/29 04:43:25;;;;;;;6.43;5.03;;;;;;;;;;5087828;28;20192;-87
2023/06/29 04:45:51;;;;;;;5.30;4.80;;;;;;;;;;5090247;28;20168;-88
2023/06/29 04:48:18;;;;;;;5.83;5.17;;;;;;;;;;5093660;28;20647;-87
2023/06/29 04:50:44;;;;;;;5.87;5.37;;;;;;;;;;5090068;28;20199;-87
2023/06/29 04:53:12;;;;;;;5.27;4.83;;;;;;;;;;5084695;28;20180;-78
2023/06/29 04:55:38;;;;;;;6.60;5.40;;;;;;;;;;5108798;28;20199;-78
2023/06/29 04:58:04;;;;;;;5.30;4.77;;;;;;;;;;5087107;28;20184;-78
2023/06/29 05:00:32;;;;;;;5.57;4.97;;;;;;;;;;5092434;28;20217;-79
2023/06/29 05:02:58;;;;;;;5.33;4.70;;;;;;;;;;5090195;28;20184;-79
2023/06/29 05:05:25;;;;;;;5.67;4.70;;;;;;;;;;5092844;28;20190;-78
2023/06/29 05:07:51;;;;;;;5.70;5.07;;;;;;;;;;5090571;28;20759;-78
2023/06/29 05:10:17;;;;;;;6.73;4.70;;;;;;;;;;5090724;28;20203;-78
2023/06/29 05:12:43;;;;;;;4.90;4.37;;;;;;;;;;5089147;28;20612;-78
2023/06/29 05:15:09;;;;;;;4.33;3.93;;;;;;;;;;5106161;28;20187;-78
2023/06/29 05:17:35;;;;;;;5.03;4.53;;;;;;;;;;5091369;28;20184;-78
2023/06/29 05:20:03;;;;;;;5.07;4.50;;;;;;;;;;5083953;28;20190;-78
2023/06/29 05:22:29;;;;;;;5.43;4.93;;;;;;;;;;5091277;28;20192;-78
2023/06/29 05:24:55;;;;;;;6.00;4.53;;;;;;;;;;5087685;28;20622;-79
2023/06/29 05:27:21;;;;;;;4.87;4.33;;;;;;;;;;5085206;28;20877;-79
2023/06/29 05:29:47;;;;;;;5.47;4.93;;;;;;;;;;5092666;28;20684;-79
2023/06/29 05:32:13;;;;;;;5.73;5.13;;;;;;;;;;5088724;28;20173;-79
2023/06/29 05:34:39;;;;;;;5.30;4.80;;;;;;;;;;5081108;28;20194;-79
2023/06/29 05:37:05;;;;;;;5.37;4.87;;;;;;;;;;5090332;28;20209;-78
2023/06/29 05:39:31;;;;;;;7.50;5.47;;;;;;;;;;5083164;28;20520;-80
2023/06/29 05:41:57;;;;;;;5.87;5.30;;;;;;;;;;5089162;28;20232;-80
2023/06/29 05:44:23;;;;;;;6.10;5.50;;;;;;;;;;5084947;28;20210;-80
2023/06/29 05:46:49;;;;;;;5.50;4.63;;;;;;;;;;5085120;28;20192;-80
2023/06/29 05:49:15;;;;;;;5.80;5.20;;;;;;;;;;5092920;28;20209;-80
2023/06/29 05:51:42;;;;;;;5.87;5.27;;;;;;;;;;5082809;28;20302;-79
2023/06/29 05:54:08;;;;;;;7.90;5.53;;;;;;;;;;5092629;28;20601;-82
2023/06/29 05:56:34;;;;;;;6.33;4.83;;;;;;;;;;5088956;28;20187;-79
2023/06/29 05:59:00;;;;;;;5.70;5.07;;;;;;;;;;5084996;28;20563;-79
2023/06/29 06:01:26;;;;;;;6.97;5.30;;;;;;;;;;5089213;28;20182;-79
2023/06/29 06:03:54;;;;;;;6.93;5.37;;;;;;;;;;5082269;28;20216;-79
2023/06/29 06:06:20;;;;;;;5.93;5.10;;;;;;;;;;5091540;28;21048;-79
2023/06/29 06:08:46;;;;;;;6.30;5.30;;;;;;;;;;5082060;28;20214;-79
2023/06/29 06:11:12;;;;;;;5.50;5.00;;;;;;;;;;5082880;28;20194;-78
2023/06/29 06:13:38;;;;;;;5.37;4.87;;;;;;;;;;5083777;28;20193;-78
2023/06/29 06:16:04;;;;;;;6.23;5.63;;;;;;;;;;5086209;28;20177;-77
2023/06/29 06:18:34;;;;;;;5.40;4.90;;;;;;;;;;5087230;28;20263;-80
2023/06/29 06:21:00;;;;;;;5.17;4.67;;;;;;;;;;5088690;28;20545;-81
2023/06/29 06:23:26;;;;;;;6.13;5.53;;;;;;;;;;5087416;28;20549;-80
2023/06/29 06:25:55;;;;;;;8.83;5.50;;;;;;;;;;5090603;28;20229;-80
2023/06/29 06:28:21;;;;;;;7.93;5.57;;;;;;;;;;5085659;28;20653;-80
2023/06/29 06:30:48;;;;;;;6.23;5.60;;;;;;;;;;5084120;28;20224;-80
2023/06/29 06:33:14;;;;;;;6.17;5.57;;;;;;;;;;5086584;28;20212;-82
2023/06/29 06:35:41;;;;;;;6.60;5.53;;;;;;;;;;5086898;28;20177;-82
2023/06/29 06:38:07;;;;;;;5.67;5.10;;;;;;;;;;5082265;28;20204;-79
2023/06/29 06:40:33;;;;;;;7.17;5.20;;;;;;;;;;5089573;28;20176;-78
2023/06/29 06:42:59;;;;;;;7.80;5.07;;;;;;;;;;5078399;28;20241;-78
2023/06/29 06:45:25;;;;;;;6.40;5.77;;;;;;;;;;5087300;28;20283;-79
2023/06/29 06:47:51;;;;;;;6.33;5.70;;;;;;;;;;5084449;28;20181;-78
2023/06/29 06:50:17;;;;;;;6.80;5.50;;;;;;;;;;5087336;28;20206;-79
2023/06/29 06:52:43;;;;;;;11.30;6.20;;;;;;;;;;5102710;28;20173;-79
2023/06/29 06:55:11;;;;;;;6.13;5.53;;;;;;;;;;5090064;28;20214;-80
2023/06/29 06:57:37;;;;;;;6.03;5.43;;;;;;;;;;5085151;28;20357;-79
2023/06/29 07:00:04;;;;;;;5.67;5.17;;;;;;;;;;5089210;28;20601;-80
2023/06/29 07:02:31;;;;;;;6.27;5.10;;;;;;;;;;5094535;28;20542;-80
2023/06/29 07:04:57;;;;;;;7.70;5.97;;;;;;;;;;5091679;28;20218;-79
2023/06/29 07:07:23;;;;;;;7.27;5.60;;;;;;;;;;5091592;28;20249;-80
2023/06/29 07:09:49;;;;;;;5.83;5.33;;;;;;;;;;5083737;28;20536;-80
2023/06/29 07:12:15;;;;;;;5.63;5.13;;;;;;;;;;5093266;28;20174;-79
2023/06/29 07:14:41;;;;;;;6.40;5.33;;;;;;;;;;5093345;28;20174;-80
2023/06/29 07:17:07;;;;;;;5.53;5.03;;;;;;;;;;5084458;28;20186;-81
2023/06/29 07:19:33;;;;;;;5.20;4.70;;;;;;;;;;5090076;28;20255;-79
2023/06/29 07:21:59;;;;;;;6.40;5.80;;;;;;;;;;5080077;28;20192;-80
2023/06/29 07:24:25;;;;;;;9.17;6.40;;;;;;;;;;5087954;28;20192;-79
2023/06/29 07:26:51;;;;;;;9.63;6.87;;;;;;;;;;5078396;28;20195;-80
2023/06/29 07:29:17;;;;;;;7.60;6.13;;;;;;;;;;5087059;28;20226;-80
2023/06/29 07:31:44;;;;;;;6.50;5.80;;;;;;;;;;5086733;28;20217;-88
2023/06/29 07:34:10;;;;;;;7.07;6.00;;;;;;;;;;5087378;28;20608;-85
2023/06/29 07:36:37;;;;;;;7.67;6.27;;;;;;;;;;5089000;28;20204;-85
2023/06/29 07:39:03;;;;;;;8.20;6.23;;;;;;;;;;5091656;28;20203;-82
2023/06/29 07:41:29;;;;;;;11.03;6.23;;;;;;;;;;5083486;28;20911;-83
2023/06/29 07:43:56;;;;;;;9.60;6.70;;;;;;;;;;5107536;28;20279;-83
2023/06/29 07:46:23;;;;;;;7.87;6.50;;;;;;;;;;5081942;28;20181;-83
2023/06/29 07:48:49;;;;;;;8.20;6.87;;;;;;;;;;5087772;28;20230;-83
2023/06/29 07:51:15;;;;;;;8.03;5.70;;;;;;;;;;5080928;28;20200;-83
2023/06/29 07:53:42;;;;;;;10.90;6.17;;;;;;;;;;5081515;28;20662;-84
2023/06/29 07:56:08;;;;;;;11.40;6.60;;;;;;;;;;5088541;28;20176;-84
2023/06/29 07:58:34;;;;;;;7.33;6.17;;;;;;;;;;5090043;28;20596;-85
2023/06/29 08:01:01;;;;;;;6.93;6.33;;;;;;;;;;5098554;28;20206;-85
2023/06/29 08:03:27;;;;;;;7.37;6.27;;;;;;;;;;5091189;28;20234;-85
2023/06/29 08:05:53;;;;;;;8.03;5.80;;;;;;;;;;5094513;28;20271;-85
2023/06/29 08:08:20;;;;;;;10.87;5.97;;;;;;;;;;5090187;28;20185;-85
2023/06/29 08:10:47;;;;;;;6.97;6.07;;;;;;;;;;5088833;28;20603;-84
2023/06/29 08:13:13;;;;;;;6.67;5.73;;;;;;;;;;5091378;28;20218;-84
2023/06/29 08:15:39;;;;;;;7.27;5.97;;;;;;;;;;5078983;28;20259;-83
2023/06/29 08:18:05;;;;;;;8.10;6.10;;;;;;;;;;5091334;28;20186;-86
2023/06/29 08:20:31;;;;;;;6.53;5.70;;;;;;;;;;5085023;28;20191;-87
2023/06/29 08:22:57;;;;;;;7.27;6.17;;;;;;;;;;5089078;28;20188;-89
2023/06/29 08:25:24;;;;;;;7.93;6.10;;;;;;;;;;5088361;28;20183;-86
2023/06/29 08:27:50;;;;;;;7.30;6.00;;;;;;;;;;5090513;28;20604;-87
2023/06/29 08:30:16;;;;;;;6.47;5.53;;;;;;;;;;5089924;28;20213;-86
2023/06/29 08:32:43;;;;;;;9.67;6.87;;;;;;;;;;5092575;28;20186;-85
2023/06/29 08:35:09;;;;;;;12.00;7.60;;;;;;;;;;5086512;28;20187;-83
2023/06/29 08:37:35;;;;;;;12.77;8.17;;;;;;;;;;5089553;28;20189;-86
2023/06/29 08:40:04;;;;;;;17.42;11.52;;;;;;;;;;5083479;28;20430;-87
2023/06/29 08:42:30;;;;;;;16.07;11.33;;;;;;;;;;5088272;28;20196;-86
2023/06/29 08:44:56;;;;;;;12.43;10.73;;;;;;;;;;5096219;28;20634;-89
2023/06/29 08:47:24;;;;;;;14.53;9.77;;;;;;;;;;5090003;28;20190;-87
2023/06/29 08:49:51;;;;;;;14.10;8.77;;;;;;;;;;5087081;28;20216;-88
2023/06/29 08:52:19;;;;;;;14.43;7.97;;;;;;;;;;5086702;28;20188;-87
2023/06/29 08:54:45;;;;;;;11.67;8.27;;;;;;;;;;5093747;28;20209;-88
2023/06/29 08:57:11;;;;;;;9.67;7.70;;;;;;;;;;5090121;28;20193;-82
2023/06/29 08:59:38;;;;;;;14.00;9.83;;;;;;;;;;5081923;28;20551;-82
2023/06/29 09:02:05;;;;;;;12.50;7.93;;;;;;;;;;5084147;28;20185;-81
2023/06/29 09:04:31;;;;;;;25.40;9.37;;;;;;;;;;5084317;28;20316;-84
2023/06/29 09:06:57;;;;;;;11.37;8.00;;;;;;;;;;5085699;28;20195;-84
2023/06/29 09:09:23;;;;;;;12.67;8.73;;;;;;;;;;5087578;28;20236;-85
2023/06/29 09:11:49;;;;;;;11.97;8.73;;;;;;;;;;5089142;28;20583;-80
2023/06/29 09:14:15;;;;;;;291.93;36.00;;;;;;;;;;5083904;28;20513;-80
2023/06/29 09:16:56;;;;;;;10.33;8.60;;;;;;;;;;5087143;28;20177;-79
2023/06/29 09:19:24;;;;;;;16.17;8.27;;;;;;;;;;5085559;28;20194;-78
2023/06/29 09:21:50;;;;;;;17.90;11.13;;;;;;;;;;5081771;28;20623;-77
2023/06/29 09:24:16;;;;;;;28.07;12.83;;;;;;;;;;5089586;28;20695;-78
2023/06/29 09:26:42;;;;;;;22.33;12.50;;;;;;;;;;5091201;28;20628;-78
2023/06/29 09:29:08;;;;;;;58.97;15.47;;;;;;;;;;5085807;28;20245;-79
2023/06/29 09:31:37;;;;;;;14.03;11.97;;;;;;;;;;5083534;28;20188;-79
2023/06/29 09:34:20;;;;;;;19.75;13.75;;;;;;;;;;5088370;28;20424;-78
2023/06/29 09:36:46;;;;;;;16.97;13.13;;;;;;;;;;5088819;28;20235;-78
2023/06/29 09:39:13;;;;;;;17.60;11.77;;;;;;;;;;5103301;28;20178;-78
2023/06/29 09:41:45;;;;;;;14.83;12.07;;;;;;;;;;5103603;28;20194;-79
2023/06/29 09:44:11;;;;;;;17.23;11.83;;;;;;;;;;5088696;28;20325;-78
2023/06/29 09:46:41;;;;;;;14.90;12.70;;;;;;;;;;5086820;28;20264;-77
2023/06/29 09:49:10;;;;;;;18.80;12.97;;;;;;;;;;5094164;28;20175;-77
2023/06/29 09:51:38;;;;;;;18.87;12.00;;;;;;;;;;5085265;28;20300;-77
2023/06/29 09:54:04;;;;;;;19.37;12.73;;;;;;;;;;5084066;28;20205;-77
2023/06/29 09:56:33;;;;;;;21.00;12.50;;;;;;;;;;5089012;28;20211;-78
2023/06/29 09:59:01;;;;;;;17.37;12.53;;;;;;;;;;5081177;28;20627;-78
2023/06/29 10:01:28;;;;;;;18.60;13.17;;;;;;;;;;5096826;28;20199;-78
2023/06/29 10:03:55;;;;;;;16.87;13.23;;;;;;;;;;5085798;28;20222;-78
2023/06/29 10:06:25;;;;;;;19.83;12.97;;;;;;;;;;5079558;28;20191;-78
2023/06/29 10:08:54;;;;;;;15.43;12.93;;;;;;;;;;5075271;28;20192;-78
2023/06/29 10:11:20;;;;;;;20.30;12.93;;;;;;;;;;5081162;28;20223;-79
2023/06/29 10:13:48;;;;;;;22.20;14.30;;;;;;;;;;5089281;28;20179;-81
2023/06/29 10:16:15;;;;;;;19.77;13.43;;;;;;;;;;5091088;28;20864;-78
2023/06/29 10:18:44;;;;;;;20.40;14.00;;;;;;;;;;5093037;28;20276;-78
2023/06/29 10:21:10;;;;;;;23.93;14.93;;;;;;;;;;5091954;28;20269;-78
2023/06/29 10:23:37;;;;;;;20.87;13.90;;;;;;;;;;5095647;28;20665;-78
2023/06/29 10:26:03;;;;;;;19.80;14.10;;;;;;;;;;5092792;28;20642;-78
2023/06/29 10:28:30;;;;;;;13.87;12.37;;;;;;;;;;5091828;28;20196;-78
2023/06/29 10:30:59;;;;;;;21.80;13.33;;;;;;;;;;5087519;28;20203;-79
2023/06/29 10:33:26;;;;;;;19.37;14.53;;;;;;;;;;5087309;28;20192;-78
2023/06/29 10:35:59;;;;;;;16.03;13.20;;;;;;;;;;5092363;28;20183;-79
2023/06/29 10:38:32;;;;;;;17.13;14.03;;;;;;;;;;5074733;28;21876;-79
2023/06/29 10:40:58;;;;;;;18.57;13.83;;;;;;;;;;5088213;28;20208;-85
2023/06/29 10:43:27;;;;;;;17.80;12.53;;;;;;;;;;5086439;28;20179;-79
2023/06/29 10:45:53;;;;;;;15.23;11.90;;;;;;;;;;5086768;28;20176;-80
2023/06/29 10:48:20;;;;;;;20.53;13.47;;;;;;;;;;5097204;28;20183;-79
2023/06/29 10:50:50;;;;;;;17.50;13.97;;;;;;;;;;5099705;28;20212;-80
2023/06/29 10:53:17;;;;;;;16.80;13.90;;;;;;;;;;5085928;28;20660;-78
2023/06/29 10:55:50;;;;;;;15.30;13.23;;;;;;;;;;5081703;28;20180;-78
2023/06/29 10:58:16;;;;;;;20.47;13.60;;;;;;;;;;5081159;28;20267;-78
2023/06/29 11:00:42;;;;;;;20.00;14.73;;;;;;;;;;5086521;28;20237;-79
2023/06/29 11:03:12;;;;;;;22.07;14.57;;;;;;;;;;5087109;28;20637;-78
2023/06/29 11:05:38;;;;;;;14.60;12.90;;;;;;;;;;5085865;28;20234;-79
2023/06/29 11:08:06;;;;;;;18.10;15.03;;;;;;;;;;5082400;28;20633;-79
2023/06/29 11:10:32;;;;;;;22.33;14.87;;;;;;;;;;5088702;28;20232;-78
2023/06/29 11:12:58;;;;;;;19.63;14.63;;;;;;;;;;5083682;28;20665;-79
2023/06/29 11:15:26;;;;;;;18.90;14.47;;;;;;;;;;5084589;28;20238;-79
2023/06/29 11:17:52;;;;;;;21.53;15.63;;;;;;;;;;5087914;28;20186;-79
2023/06/29 11:20:19;;;;;;;18.03;15.27;;;;;;;;;;5083117;28;20192;-80
2023/06/29 11:22:45;;;;;;;21.77;14.83;;;;;;;;;;5084064;28;20602;-80
2023/06/29 11:25:16;;;;;;;18.50;15.37;;;;;;;;;;5086976;28;20229;-79
2023/06/29 11:27:42;;;;;;;18.33;13.97;;;;;;;;;;5080958;28;20560;-79
2023/06/29 11:30:10;;;;;;;18.00;15.17;;;;;;;;;;5079976;28;20219;-79
2023/06/29 11:32:36;;;;;;;20.47;15.03;;;;;;;;;;5092283;28;20184;-81
2023/06/29 11:35:04;;;;;;;16.23;14.53;;;;;;;;;;5089847;28;20176;-79
2023/06/29 11:37:30;;;;;;;18.23;15.30;;;;;;;;;;5086909;28;20188;-78
2023/06/29 11:39:57;;;;;;;19.67;17.07;;;;;;;;;;5084280;28;20646;-78
2023/06/29 11:42:24;;;;;;;22.83;16.63;;;;;;;;;;5088039;28;20604;-81
2023/06/29 11:45:04;;;;;;;17.00;14.80;;;;;;;;;;5086173;28;20226;-79
2023/06/29 11:47:31;;;;;;;19.03;16.13;;;;;;;;;;5083756;28;20188;-80
2023/06/29 11:50:00;;;;;;;18.27;16.03;;;;;;;;;;5097365;28;20292;-80
2023/06/29 11:52:27;;;;;;;21.27;16.50;;;;;;;;;;5077991;28;20160;-80
2023/06/29 11:54:53;;;;;;;21.03;16.97;;;;;;;;;;5083987;28;20227;-79
2023/06/29 11:57:20;;;;;;;25.37;18.50;;;;;;;;;;5090159;28;20244;-80
2023/06/29 11:59:46;;;;;;;22.73;18.83;;;;;;;;;;5091812;28;20265;-79
2023/06/29 12:02:14;;;;;;;22.77;18.33;;;;;;;;;;5090988;28;20176;-79
2023/06/29 12:04:53;;;;;;;20.67;17.37;;;;;;;;;;5088867;28;20247;-78
2023/06/29 12:07:20;;;;;;;22.47;17.47;;;;;;;;;;5082644;28;20219;-79
2023/06/29 12:09:47;;;;;;;21.20;16.00;;;;;;;;;;5090196;28;20218;-79
2023/06/29 12:12:13;;;;;;;20.50;15.73;;;;;;;;;;5086258;28;20287;-79
2023/06/29 12:14:39;;;;;;;22.00;17.37;;;;;;;;;;5088890;28;20202;-80
2023/06/29 12:17:06;;;;;;;17.57;15.30;;;;;;;;;;5087966;28;20195;-79
2023/06/29 12:19:37;;;;;;;21.03;17.70;;;;;;;;;;5091234;28;20192;-79
2023/06/29 12:22:12;;;;;;;20.97;17.43;;;;;;;;;;5091464;28;20348;-83
2023/06/29 12:24:38;;;;;;;27.00;16.83;;;;;;;;;;5087829;28;20755;-79
2023/06/29 12:27:04;;;;;;;20.37;16.30;;;;;;;;;;5093309;28;20175;-79
2023/06/29 12:29:30;;;;;;;24.30;17.63;;;;;;;;;;5088282;28;20220;-79
2023/06/29 12:32:02;;;;;;;20.80;16.77;;;;;;;;;;5088592;28;20688;-79
2023/06/29 12:34:31;;;;;;;25.17;16.43;;;;;;;;;;5091980;28;20180;-82
2023/06/29 12:36:57;;;;;;;19.60;16.23;;;;;;;;;;5088487;28;20215;-79
2023/06/29 12:39:23;;;;;;;19.93;17.00;;;;;;;;;;5086856;28;20180;-79
2023/06/29 12:41:49;;;;;;;20.30;16.73;;;;;;;;;;5087698;28;20245;-82
2023/06/29 12:44:15;;;;;;;19.80;16.50;;;;;;;;;;5084079;28;20191;-79
2023/06/29 12:46:41;;;;;;;24.00;16.60;;;;;;;;;;5089070;28;20172;-79
2023/06/29 12:49:07;;;;;;;20.40;16.63;;;;;;;;;;5090867;28;20176;-79
2023/06/29 12:51:33;;;;;;;24.70;17.70;;;;;;;;;;5085147;28;20186;-79
2023/06/29 12:53:59;;;;;;;21.67;17.57;;;;;;;;;;5088066;28;20205;-81
2023/06/29 12:56:26;;;;;;;24.53;18.00;;;;;;;;;;5085169;28;20188;-80
2023/06/29 12:58:52;;;;;;;18.03;16.00;;;;;;;;;;5087039;28;20563;-79
2023/06/29 13:01:18;;;;;;;19.50;17.50;;;;;;;;;;5087588;28;20536;-79
2023/06/29 13:03:44;;;;;;;21.07;16.17;;;;;;;;;;5092039;28;20216;-79
2023/06/29 13:06:10;;;;;;;19.30;16.03;;;;;;;;;;5089211;28;20207;-79
2023/06/29 13:08:36;;;;;;;21.53;17.13;;;;;;;;;;5088188;28;20184;-79
2023/06/29 13:11:04;;;;;;;19.57;16.83;;;;;;;;;;5082938;28;20270;-79
2023/06/29 13:13:30;;;;;;;18.33;15.87;;;;;;;;;;5090589;28;20199;-79
2023/06/29 13:15:56;;;;;;;16.83;14.47;;;;;;;;;;5093614;28;20263;-80
2023/06/29 13:18:24;;;;;;;19.10;13.97;;;;;;;;;;5092172;28;20196;-79
2023/06/29 13:20:50;;;;;;;17.07;13.87;;;;;;;;;;5080726;28;20326;-79
2023/06/29 13:23:16;;;;;;;18.90;14.73;;;;;;;;;;5088512;28;20277;-79
2023/06/29 13:25:42;;;;;;;16.97;13.87;;;;;;;;;;5092331;28;20184;-79
2023/06/29 13:28:08;;;;;;;16.20;14.50;;;;;;;;;;5090167;28;20182;-79
2023/06/29 13:30:35;;;;;;;14.70;13.10;;;;;;;;;;5086288;28;20200;-79
2023/06/29 13:33:01;;;;;;;18.90;13.33;;;;;;;;;;5089705;28;20198;-78
2023/06/29 13:35:27;;;;;;;17.70;14.33;;;;;;;;;;5081579;28;20652;-79
2023/06/29 13:37:53;;;;;;;16.33;14.40;;;;;;;;;;5081795;28;20249;-79
2023/06/29 13:40:19;;;;;;;17.03;14.60;;;;;;;;;;5088832;28;20188;-78
2023/06/29 13:42:45;;;;;;;17.33;14.17;;;;;;;;;;5088238;28;20252;-78
2023/06/29 13:45:11;;;;;;;18.33;14.40;;;;;;;;;;5093074;28;20219;-79
2023/06/29 13:47:39;;;;;;;15.17;13.57;;;;;;;;;;5090838;28;20178;-78
2023/06/29 13:50:05;;;;;;;18.50;14.13;;;;;;;;;;5088527;28;20215;-77
2023/06/29 13:52:31;;;;;;;19.17;14.47;;;;;;;;;;5084074;28;20529;-77
2023/06/29 13:54:58;;;;;;;14.87;13.37;;;;;;;;;;5089841;28;20209;-78
2023/06/29 13:57:24;;;;;;;16.30;13.63;;;;;;;;;;5089038;28;20206;-78
2023/06/29 13:59:50;;;;;;;15.50;13.90;;;;;;;;;;5083279;28;20569;-77
2023/06/29 14:02:16;;;;;;;15.30;13.70;;;;;;;;;;5087353;28;20231;-78
2023/06/29 14:04:42;;;;;;;15.73;13.67;;;;;;;;;;5088828;28;20230;-77
2023/06/29 14:07:08;;;;;;;15.93;13.70;;;;;;;;;;5093353;28;20194;-77
2023/06/29 14:09:34;;;;;;;13.90;12.50;;;;;;;;;;5090324;28;20290;-78
2023/06/29 14:12:00;;;;;;;14.30;12.00;;;;;;;;;;5091231;28;20186;-78
2023/06/29 14:14:26;;;;;;;14.33;12.63;;;;;;;;;;5088090;28;20191;-78
2023/06/29 14:16:52;;;;;;;12.43;11.13;;;;;;;;;;5089578;28;20231;-78
2023/06/29 14:19:18;;;;;;;14.37;12.30;;;;;;;;;;5091404;28;20178;-78
2023/06/29 14:21:44;;;;;;;13.57;11.60;;;;;;;;;;5080023;28;20428;-78
2023/06/29 14:24:10;;;;;;;13.93;12.53;;;;;;;;;;5090657;28;20207;-79
2023/06/29 14:26:36;;;;;;;15.07;13.47;;;;;;;;;;5090748;28;20202;-78
2023/06/29 14:29:02;;;;;;;17.57;15.53;;;;;;;;;;5085323;28;20202;-79
2023/06/29 14:31:28;;;;;;;15.17;13.17;;;;;;;;;;5089450;28;20208;-78